createdAt,value
2019-01-27T00:01:37.048Z,29.4
2019-01-27T00:11:25.956Z,28.6
2019-01-27T00:21:26.956Z,28.7
2019-01-27T00:31:27.355Z,29.8
2019-01-27T00:41:35.511Z,30.0
2019-01-27T00:51:26.481Z,26.4
2019-01-27T01:01:27.940Z,31.0
2019-01-27T01:11:26.959Z,28.2
2019-01-27T01:21:29.368Z,30.1
2019-01-27T01:31:33.200Z,31.0
2019-01-27T01:41:32.801Z,31.4
2019-01-27T01:51:26.394Z,31.2
2019-01-27T02:01:27.049Z,32.4
2019-01-27T02:11:26.409Z,31.5
2019-01-27T02:21:26.014Z,32.6
2019-01-27T02:31:27.796Z,32.8
2019-01-27T02:41:26.507Z,33.8
2019-01-27T02:51:28.222Z,32.9
2019-01-27T03:01:35.040Z,31.1
2019-01-27T03:11:26.734Z,29.0
2019-01-27T03:21:26.060Z,29.2
2019-01-27T03:31:27.833Z,28.7
2019-01-27T03:41:26.807Z,27.7
2019-01-27T03:51:29.620Z,26.9
2019-01-27T04:01:30.822Z,26.2
2019-01-27T04:11:33.547Z,24.8
2019-01-27T04:21:26.963Z,25.8
2019-01-27T04:31:26.766Z,25.8
2019-01-27T04:41:30.759Z,24.4
2019-01-27T04:51:27.821Z,23.0
2019-01-27T05:01:28.790Z,22.5
2019-01-27T05:11:28.681Z,24.2
2019-01-27T05:21:26.484Z,23.2
2019-01-27T05:31:25.964Z,25.1
2019-01-27T05:41:26.566Z,22.9
2019-01-27T05:51:26.507Z,20.6
2019-01-27T06:01:27.185Z,19.1
2019-01-27T06:11:32.670Z,19.8
2019-01-27T06:21:26.367Z,19.8
2019-01-27T06:31:27.494Z,19.9
2019-01-27T06:41:27.155Z,19.0
2019-01-27T06:51:35.694Z,17.8
2019-01-27T07:01:27.915Z,16.0
2019-01-27T07:11:26.736Z,17.0
2019-01-27T07:21:26.046Z,18.8
2019-01-27T07:31:28.437Z,18.9
2019-01-27T07:41:27.992Z,20.0
2019-01-27T07:51:26.383Z,18.4
2019-01-27T08:01:27.716Z,18.9
2019-01-27T08:11:27.861Z,18.5
2019-01-27T08:21:25.853Z,18.5
2019-01-27T08:31:26.807Z,18.7
2019-01-27T08:41:27.253Z,20.7
2019-01-27T08:51:27.398Z,20.7
2019-01-27T09:01:28.945Z,18.6
2019-01-27T09:11:27.112Z,16.1
2019-01-27T09:21:26.981Z,16.8
2019-01-27T09:31:32.152Z,16.2
2019-01-27T09:41:25.828Z,16.6
2019-01-27T09:51:27.779Z,16.2
2019-01-27T10:01:27.254Z,15.0
2019-01-27T10:11:27.507Z,9.3
2019-01-27T10:21:27.208Z,8.9
2019-01-27T10:31:26.162Z,11.9
2019-01-27T10:41:29.579Z,14.9
2019-01-27T10:51:26.385Z,15.0
2019-01-27T11:01:26.016Z,16.1
2019-01-27T11:11:26.380Z,15.0
2019-01-27T11:21:28.160Z,18.8
2019-01-27T11:31:26.130Z,21.0
2019-01-27T11:41:26.219Z,17.8
2019-01-27T11:51:27.459Z,17.6
2019-01-27T12:01:26.235Z,17.9
2019-01-27T12:11:26.074Z,16.0
2019-01-27T12:21:29.273Z,18.2
2019-01-27T12:31:27.498Z,12.9
2019-01-27T12:41:26.347Z,7.5
2019-01-27T12:51:27.358Z,8.3
2019-01-27T13:01:27.304Z,9.1
2019-01-27T13:11:26.461Z,14.8
2019-01-27T13:21:27.613Z,16.1
2019-01-27T13:31:27.053Z,16.0
2019-01-27T13:41:26.061Z,15.3
2019-01-27T13:51:28.202Z,14.2
2019-01-27T14:01:26.593Z,15.2
2019-01-27T14:11:26.322Z,16.0
2019-01-27T14:21:28.939Z,17.7
2019-01-27T14:31:27.208Z,16.5
2019-01-27T14:41:25.949Z,16.3
2019-01-27T14:51:27.292Z,17.8
2019-01-27T15:01:26.609Z,17.5
2019-01-27T15:11:27.686Z,17.6
2019-01-27T15:21:27.167Z,16.4
2019-01-27T15:31:27.788Z,18.6
2019-01-27T15:41:28.946Z,19.1
2019-01-27T15:51:26.583Z,17.6
2019-01-27T16:01:27.756Z,17.7
2019-01-27T16:11:26.855Z,17.2
2019-01-27T16:21:25.731Z,17.4
2019-01-27T16:31:27.219Z,18.6
2019-01-27T16:41:26.370Z,18.1
2019-01-27T16:51:26.034Z,18.4
2019-01-27T17:01:27.996Z,18.5
2019-01-27T17:11:27.281Z,18.2
2019-01-27T17:21:26.743Z,21.8
2019-01-27T17:31:26.465Z,21.7
2019-01-27T17:41:26.702Z,20.2
2019-01-27T17:51:26.912Z,22.5
2019-01-27T18:01:26.615Z,26.0
2019-01-27T18:11:27.614Z,27.0
2019-01-27T18:21:27.449Z,29.5
2019-01-27T18:31:26.649Z,29.9
2019-01-27T18:41:27.431Z,28.8
2019-01-27T18:51:27.322Z,28.2
2019-01-27T19:01:26.695Z,28.9
2019-01-27T19:11:28.498Z,29.5
2019-01-27T19:21:28.642Z,29.9
2019-01-27T19:31:26.469Z,31.8
2019-01-27T19:41:26.512Z,32.5
2019-01-27T19:51:27.661Z,33.2
2019-01-27T20:01:27.304Z,33.5
2019-01-27T20:11:26.373Z,30.4
2019-01-27T20:21:26.510Z,32.7
2019-01-27T20:31:27.679Z,35.1
2019-01-27T20:41:26.470Z,33.2
2019-01-27T20:51:26.438Z,32.8
2019-01-27T21:01:26.139Z,35.6
2019-01-27T21:11:26.023Z,37.1
2019-01-27T21:21:26.582Z,38.2
2019-01-27T21:31:28.254Z,39.2
2019-01-27T21:41:26.352Z,38.6
2019-01-27T21:51:26.003Z,39.6
2019-01-27T22:01:25.829Z,39.2
2019-01-27T22:11:26.822Z,42.2
2019-01-27T22:21:25.804Z,42.2
2019-01-27T22:31:26.756Z,41.4
2019-01-27T22:41:27.988Z,43.6
2019-01-27T22:51:26.097Z,43.8
2019-01-27T23:01:28.057Z,45.3
2019-01-27T23:11:28.775Z,45.5
2019-01-27T23:21:27.766Z,45.1
2019-01-27T23:31:26.319Z,47.6
2019-01-27T23:41:26.482Z,46.2
2019-01-27T23:51:25.831Z,44.4
